EHVL 
Vlieland Heliport
Vlieland, The Netherlands 
ICAOStatus
EHVLOperational
LatitudeLongitude
53° 17' 47" N5° 5' 8" E
53.2966655.085833
Local Time (DST+2)UTC (GMT+1)
04-23-2014 05:36 pm04-23-2014 15:36
Sunrise-SunsetLocalUTC
Begin Civil Twilight05:40 am03:40
Sunrise06:19 am04:19
Sunset08:56 pm18:56
End Civil Twilight09:35 pm19:35

Current Weather

METARObservedFlight Conditions

EHVL 231525Z AUTO 08016KT 9999 FEW065 17/10 Q1019 BLU

Wed, Apr 23, 2014 @ 15:25 UTC(Z)

(11 Minutes ago)

VFR

(Visual Flight Rules)

WindVisibilityCloudsConditions
080° at 16 knots (30 kph)
10 km or more
  • Few at 6,500' AGL
  • No significant weather
TemperaturesReadingsPrecipitation
Current Temp17°C (63°F)
Dewpoint10°C (50°F)
Humidity64%
Altimeter30.09"Hg
Sea Level Pressure1019mb
Field Elevation16.4'
None Recorded

Additional weather within a 92.6km radius of EHVL

Location METAR
EHLW

45.6km E (099°)

11 minutes ago
EHKD

46.1km S (206°)

11 minutes ago
VFR VFR    MVFR MVFR    IFR IFR    LIFR LIFR    Unknown Unknown

Previous 24 hour Weather Graphs

  Loading...

CheckWX.com is intended as a tool to help pilots better visualize weather data.   It is not intended as a substitute for an official weather briefing obtained from a Flight Service Station.
CheckWX.com does not meet the FAA requirements for an official pre-flight weather briefing.   Therefore, it's important that pilots still call and obtain an official FSS pre-flight weather briefing.